Latest Weather Observations for Low Head

IDT60801

Issued at 2:31 pm EDT Sunday 14 February 2016 (issued every 30 minutes, with the page automatically refreshed every 10 minutes)

About weather observations | Map of weather stations | Latest weather observations for TAS | Other Formats
Station Details ID: 091293 Name: LOW HEAD Lat: -41.05 Lon: 146.79 Height: 3.0 m
Data from the previous 72 hours. | See also: Recent months at Low Head
Date/Time
EDT
Temp
°C
App
Temp
°C
Dew
Point
Rel
Hum
%
Delta-T
°C
Wind Press
QNH
hPa
Press
MSL
hPa
Rain
since 9 am
mm
Dir
 
Spd
km/h
Gust
km/h
Spd
kts
Gust
kts
14/02:30pm 21.2 13.3 12.6 58 4.9 WNW 46 56 25 30 1005.0 1005.0 0.0
14/02:00pm 21.1 11.7 12.8 59 4.7 WNW 54 69 29 37 1005.0 1005.0 0.0
14/01:30pm 20.9 12.4 13.1 61 4.4 WNW 50 61 27 33 1005.1 1005.1 0.0
14/01:00pm 20.6 12.2 12.3 59 4.7 WNW 48 57 26 31 1005.1 1005.1 0.0
14/12:30pm 20.3 12.9 13.0 63 4.1 WNW 44 56 24 30 1005.4 1005.4 0.0
14/12:00pm 20.1 12.8 13.3 65 3.9 WNW 44 52 24 28 1005.6 1005.6 0.0
14/11:30am 19.6 12.8 13.1 66 3.7 W 41 50 22 27 1005.7 1005.7 0.0
14/11:00am 18.9 10.4 11.9 64 3.9 W 48 56 26 30 1005.7 1005.7 0.0
14/10:30am 18.7 10.6 12.0 65 3.7 W 46 61 25 33 1005.7 1005.7 0.0
14/10:00am 18.3 10.2 12.1 67 3.4 W 46 56 25 30 1005.7 1005.7 0.0
14/09:30am 18.2 10.8 12.4 69 3.2 WNW 43 52 23 28 1005.7 1005.7 0.0
14/09:00am 18.1 10.5 12.5 70 3.1 W 44 50 24 27 1005.6 1005.6 0.0
14/08:30am 18.0 10.7 12.7 71 3.0 WNW 43 52 23 28 1005.6 1005.6 0.0
14/08:00am 17.9 9.0 11.9 68 3.3 W 50 59 27 32 1005.5 1005.5 0.0
14/07:30am 17.6 9.2 12.3 71 2.9 WNW 48 59 26 32 1005.3 1005.3 0.0
14/07:00am 17.8 10.9 12.7 72 2.9 W 41 50 22 27 1004.9 1004.9 0.0
14/06:30am 17.5 10.0 12.0 70 3.0 W 43 48 23 26 1004.7 1004.7 0.0
14/06:00am 17.8 10.2 12.5 71 3.0 W 44 56 24 30 1004.4 1004.4 0.0
14/05:30am 17.7 10.3 12.4 71 2.9 W 43 48 23 26 1004.3 1004.3 0.0
14/05:00am 17.6 10.5 12.3 71 2.9 W 41 46 22 25 1004.3 1004.3 0.0
14/04:30am 17.6 11.7 12.5 72 2.8 W 35 43 19 23 1004.4 1004.4 0.0
14/04:00am 17.5 10.0 12.0 70 3.0 WNW 43 50 23 27 1004.5 1004.5 0.0
14/03:30am 17.4 11.8 12.1 71 2.9 WNW 33 39 18 21 1004.6 1004.6 0.0
14/03:00am 17.6 11.9 11.9 69 3.1 WNW 33 41 18 22 1004.6 1004.6 0.0
14/02:30am 17.8 12.5 11.4 66 3.5 W 30 35 16 19 1004.7 1004.7 0.0
14/02:00am 17.6 12.1 10.7 64 3.7 W 30 35 16 19 1004.6 1004.6 0.0
14/01:30am 17.9 12.1 10.8 63 3.8 WSW 32 37 17 20 1004.7 1004.7 0.0
14/01:00am 18.0 11.4 10.1 60 4.2 WSW 35 41 19 22 1004.8 1004.8 0.0
14/12:30am 18.0 11.9 9.6 58 4.4 WSW 32 41 17 22 1005.0 1005.0 0.0
14/12:00am 18.0 12.2 9.4 57 4.5 WSW 30 35 16 19 1004.9 1004.9 0.0
 
Date/Time
EDT
Temp
°C
App
Temp
°C
Dew
Point
Rel
Hum
%
Delta-T
°C
Wind Press
QNH
hPa
Press
MSL
hPa
Rain
since 9 am
mm
Dir
 
Spd
km/h
Gust
km/h
Spd
kts
Gust
kts
13/11:30pm 18.7 11.4 11.5 63 3.9 WSW 41 48 22 26 1004.9 1004.9 0.0
13/11:00pm 19.4 11.2 12.9 66 3.7 W 48 57 26 31 1005.3 1005.3 0.0
13/10:30pm 19.7 12.0 13.4 67 3.6 W 46 61 25 33 1005.3 1005.3 0.0
13/10:00pm 20.0 13.6 16.0 78 2.4 WNW 44 50 24 27 1005.0 1005.0 0.0
13/09:30pm 20.1 15.8 16.9 82 1.9 WNW 35 43 19 23 1004.4 1004.4 0.0
13/09:00pm 20.0 15.1 17.2 84 1.7 WNW 39 46 21 25 1004.3 1004.3 0.0
13/08:30pm 20.1 14.4 17.1 83 1.8 WNW 43 54 23 29 1004.1 1004.1 0.0
13/08:00pm 20.3 13.2 16.9 81 2.1 WNW 50 59 27 32 1003.9 1003.9 0.0
13/07:30pm 20.6 14.4 17.4 82 2.0 WNW 46 57 25 31 1003.5 1003.5 0.0
13/07:00pm 20.7 13.6 17.1 80 2.2 WNW 50 59 27 32 1003.2 1003.2 0.0
13/06:30pm 21.1 15.0 17.5 80 2.2 WNW 46 59 25 32 1002.9 1002.9 0.0
13/06:00pm 21.0 13.1 16.8 77 2.6 WNW 54 65 29 35 1002.7 1002.7 0.0
13/05:30pm 21.2 14.0 16.8 76 2.7 NW 50 61 27 33 1002.8 1002.8 0.0
13/05:00pm 21.5 15.5 16.9 75 2.8 NW 44 56 24 30 1003.1 1003.1 0.0
13/04:30pm 21.4 15.8 16.6 74 2.9 NW 41 46 22 25 1003.4 1003.4 0.0
13/04:00pm 21.8 17.0 16.5 72 3.2 NW 37 43 20 23 1003.8 1003.8 0.0
13/03:30pm 22.0 16.9 16.7 72 3.2 NW 39 44 21 24 1004.0 1004.0 0.0
13/03:00pm 22.2 18.2 16.2 69 3.6 NW 32 39 17 21 1004.2 1004.2 0.0
13/02:30pm 22.2 18.8 16.7 71 3.4 NW 30 33 16 18 1004.4 1004.4 0.0
13/02:00pm 22.7 20.4 17.6 73 3.2 NNW 26 30 14 16 1004.5 1004.5 0.0
13/01:30pm 22.5 20.8 17.2 72 3.3 NNW 22 28 12 15 1004.8 1004.8 0.0
13/01:00pm 23.2 22.1 17.7 71 3.4 NW 20 24 11 13 1005.2 1005.2 0.0
13/12:30pm 22.9 21.7 17.6 72 3.3 NW 20 24 11 13 1005.5 1005.5 0.0
13/12:00pm 22.5 22.1 18.1 76 2.8 NW 17 20 9 11 1005.6 1005.6 0.0
13/11:30am 21.9 21.4 17.7 77 2.6 NW 17 20 9 11 1005.9 1005.9 0.0
13/11:00am 21.5 21.4 17.9 80 2.2 NNW 15 19 8 10 1006.0 1006.0 0.0
13/10:30am 21.5 21.6 18.3 82 2.0 NNW 15 19 8 10 1006.4 1006.4 0.0
13/10:00am 20.9 21.3 18.1 84 1.7 N 13 15 7 8 1006.5 1006.5 0.0
13/09:30am 20.5 21.0 18.3 87 1.4 N 13 17 7 9 1006.6 1006.6 0.0
13/09:00am 20.0 19.5 17.8 87 1.4 N 17 19 9 10 1006.9 1006.9 0.0
13/08:30am 19.8 18.8 17.6 87 1.3 NW 19 20 10 11 1007.8 1007.8 0.0
13/08:00am 20.0 19.4 17.6 86 1.5 NNW 17 19 9 10 1007.4 1007.4 0.0
13/07:30am 20.0 18.9 17.4 85 1.6 NNE 19 24 10 13 1006.3 1006.3 0.0
13/07:00am 19.7 19.3 17.1 85 1.6 NW 15 17 8 9 1007.6 1007.6 0.0
13/06:30am 19.7 18.9 17.1 85 1.6 NW 17 20 9 11 1007.6 1007.6 0.0
13/06:00am 19.6 19.5 17.0 85 1.6 NW 13 15 7 8 1007.5 1007.5 0.0
13/05:30am 19.6 19.4 16.8 84 1.7 NW 13 15 7 8 1007.4 1007.4 0.0
13/05:00am 19.8 18.5 16.8 83 1.8 N 19 20 10 11 1007.4 1007.4 0.0
13/04:30am 20.0 19.2 17.0 83 1.8 NNW 17 20 9 11 1007.8 1007.8 0.0
13/04:00am 19.8 18.4 17.0 84 1.7 N 20 24 11 13 1007.9 1007.9 0.0
13/03:30am 19.9 18.8 17.3 85 1.6 N 19 24 10 13 1008.4 1008.4 0.0
13/03:00am 19.6 19.5 17.0 85 1.6 NNW 13 15 7 8 1008.9 1008.9 0.0
13/02:30am 19.7 19.7 17.1 85 1.6 NNW 13 17 7 9 1009.3 1009.3 0.0
13/02:00am 19.6 19.2 17.2 86 1.5 NNW 15 19 8 10 1009.5 1009.5 0.0
13/01:30am 19.9 20.0 17.5 86 1.5 N 13 19 7 10 1009.9 1009.9 0.0
13/01:00am 19.5 19.5 17.1 86 1.5 N 13 17 7 9 1010.4 1010.4 0.0
13/12:30am 19.4 19.6 16.8 85 1.6 N 11 13 6 7 1010.5 1010.5 0.0
13/12:00am 19.4 19.6 16.8 85 1.6 N 11 13 6 7 1010.7 1010.7 0.0
 
Date/Time
EDT
Temp
°C
App
Temp
°C
Dew
Point
Rel
Hum
%
Delta-T
°C
Wind Press
QNH
hPa
Press
MSL
hPa
Rain
since 9 am
mm
Dir
 
Spd
km/h
Gust
km/h
Spd
kts
Gust
kts
12/11:30pm 19.4 19.6 16.8 85 1.6 N 11 13 6 7 1011.1 1011.1 0.0
12/11:00pm 18.7 19.5 15.8 83 1.7 ENE 6 9 3 5 1011.4 1011.4 0.0
12/10:30pm 19.6 20.1 16.6 83 1.8 N 9 13 5 7 1011.7 1011.7 0.0
12/10:00pm 19.8 20.3 16.6 82 1.9 N 9 11 5 6 1012.2 1012.2 0.0
12/09:30pm 19.8 20.2 16.4 81 2.0 NW 9 11 5 6 1012.4 1012.4 0.0
12/09:00pm 19.8 20.6 16.3 80 2.1 NNW 7 9 4 5 1012.4 1012.4 0.0
12/08:30pm 19.8 20.5 16.1 79 2.2 NW 7 9 4 5 1012.5 1012.5 0.0
12/08:00pm 20.2 20.6 16.2 78 2.4 NW 9 11 5 6 1012.5 1012.5 0.0
12/07:30pm 20.6 21.0 16.2 76 2.6 NNW 9 11 5 6 1012.8 1012.8 0.0
12/07:00pm 20.9 20.9 16.3 75 2.8 NW 11 15 6 8 1013.0 1013.0 0.0
12/06:30pm 21.5 21.3 16.7 74 2.9 NW 13 17 7 9 1013.3 1013.3 0.0
12/06:00pm 22.0 21.9 16.9 73 3.1 NW 13 17 7 9 1013.4 1013.4 0.0
12/05:30pm 22.3 21.9 17.2 73 3.1 NW 15 19 8 10 1013.5 1013.5 0.0
12/05:00pm 22.1 21.6 16.8 72 3.2 NNW 15 19 8 10 1013.7 1013.7 0.0
12/04:30pm 22.3 21.9 17.2 73 3.1 NNW 15 17 8 9 1013.6 1013.6 0.0
12/04:00pm 22.0 22.1 17.4 75 2.8 N 13 17 7 9 1013.9 1013.9 0.0
12/03:30pm 21.5 21.3 17.7 79 2.3 N 15 19 8 10 1014.2 1014.2 0.0
12/03:00pm 22.5 22.2 18.3 77 2.6 N 17 19 9 10 1014.7 1014.7 0.0
12/02:30pm 22.4 22.4 19.0 81 2.2 N 17 20 9 11 1015.0 1015.0 0.0
12/02:00pm 21.2 20.3 17.8 81 2.1 N 19 20 10 11 1015.2 1015.2 0.0
12/01:30pm 21.0 20.4 17.6 81 2.1 NNE 17 20 9 11 1015.3 1015.3 0.0
12/01:00pm 21.3 20.4 17.7 80 2.2 NNE 19 20 10 11 1015.7 1015.7 0.0
12/12:30pm 21.1 20.2 17.7 81 2.1 NNE 19 20 10 11 1015.9 1015.9 0.0
12/12:00pm 21.2 20.1 17.8 81 2.1 NNE 20 22 11 12 1016.2 1016.2 0.0
12/11:30am 21.0 20.3 17.4 80 2.2 NNE 17 19 9 10 1016.6 1016.6 0.0
12/11:00am 20.8 21.9 16.6 77 2.5 SSW 6 9 3 5 1017.0 1017.0 0.0
12/10:30am 20.3 20.1 16.7 80 2.2 S 13 19 7 10 1017.0 1017.0 0.0
12/10:00am 19.5 18.9 16.7 84 1.7 S 15 17 8 9 1017.2 1017.2 0.0
12/09:30am 18.6 17.4 16.2 86 1.4 SSE 17 20 9 11 1017.3 1017.3 0.0
12/09:00am 18.1 17.0 16.3 89 1.1 S 17 20 9 11 1017.2 1017.2 6.8
12/08:30am 17.2 15.9 15.7 91 0.9 SSE 17 20 9 11 1017.0 1017.0 6.8
12/08:00am 17.0 15.7 15.7 92 0.8 SSE 17 22 9 12 1016.7 1016.7 6.8
12/07:30am 16.5 15.0 15.4 93 0.6 SSE 17 19 9 10 1016.5 1016.5 6.8
12/07:00am 16.5 15.0 15.4 93 0.6 SSE 17 20 9 11 1016.3 1016.3 6.8
12/06:30am 16.3 15.1 15.0 92 0.8 SSE 15 17 8 9 1016.3 1016.3 6.8
12/06:00am 16.4 14.8 14.9 91 0.9 SSE 17 20 9 11 1016.4 1016.4 6.8
12/05:30am 16.6 15.0 15.1 91 0.9 SSE 17 22 9 12 1016.2 1016.2 6.8
12/05:00am 17.0 16.3 15.5 91 0.9 SSE 13 17 7 9 1016.3 1016.3 6.8
12/04:30am 16.9 16.1 15.2 90 1.0 SSE 13 17 7 9 1016.1 1016.1 6.2
12/04:00am 17.1 17.1 15.3 89 1.0 SSE 9 13 5 7 1016.5 1016.5 6.2
12/03:30am 17.0 17.2 14.8 87 1.3 SSE 7 13 4 7 1016.5 1016.5 5.8
12/03:00am 17.9 17.9 15.2 84 1.6 SSW 9 13 5 7 1016.7 1016.7 0.6
12/02:30am 18.0 19.1 14.7 81 1.9 SSW 2 7 1 4 1016.8 1016.8 0.0
12/02:00am 17.6 17.8 14.1 80 2.0 ESE 6 11 3 6 1016.8 1016.8 0.0
12/01:30am 17.8 17.0 14.1 79 2.1 ESE 11 17 6 9 1017.0 1017.0 0.0
12/01:00am 17.4 16.9 13.9 80 2.0 SE 9 13 5 7 1017.3 1017.3 0.0
12/12:30am 17.9 17.1 14.0 78 2.2 E 11 15 6 8 1017.3 1017.3 0.0
12/12:00am 17.3 15.8 13.0 76 2.4 ESE 13 17 7 9 1017.4 1017.4 0.0
 
Date/Time
EDT
Temp
°C
App
Temp
°C
Dew
Point
Rel
Hum
%
Delta-T
°C
Wind Press
QNH
hPa
Press
MSL
hPa
Rain
since 9 am
mm
Dir
 
Spd
km/h
Gust
km/h
Spd
kts
Gust
kts
11/11:30pm 18.7 17.5 14.0 74 2.7 E 13 17 7 9 1017.4 1017.4 0.0
11/11:00pm 19.3 17.4 14.3 73 2.9 NE 17 20 9 11 1017.5 1017.5 0.0
11/10:30pm 19.3 17.0 14.1 72 3.0 NE 19 20 10 11 1017.4 1017.4 0.0
11/10:00pm 19.4 17.8 13.8 70 3.2 NNE 15 19 8 10 1017.2 1017.2 0.0
11/09:30pm 19.5 17.9 13.9 70 3.2 NNE 15 20 8 11 1017.0 1017.0 0.0
11/09:00pm 19.3 16.8 13.5 69 3.3 NNE 19 20 10 11 1016.7 1016.7 0.0
11/08:30pm 19.3 17.3 12.8 66 3.7 NNE 15 19 8 10 1016.4 1016.4 0.0
11/08:00pm 19.7 17.9 13.4 67 3.6 N 15 19 8 10 1016.2 1016.2 0.0
11/07:30pm 19.9 17.6 12.9 64 4.0 NNE 17 20 9 11 1015.6 1015.6 0.0
11/07:00pm 20.0 17.2 12.7 63 4.1 NNE 19 22 10 12 1015.4 1015.4 0.0
11/06:30pm 19.9 16.4 12.2 61 4.3 N 22 24 12 13 1015.1 1015.1 0.0
11/06:00pm 20.0 16.8 13.2 65 3.9 N 22 26 12 14 1015.1 1015.1 0.0
11/05:30pm 20.5 18.1 13.7 65 3.9 N 19 22 10 12 1015.2 1015.2 0.0
11/05:00pm 20.7 18.1 13.9 65 3.9 N 20 24 11 13 1015.2 1015.2 0.0
11/04:30pm 20.3 17.9 13.7 66 3.8 NNE 19 22 10 12 1015.2 1015.2 0.0
11/04:00pm 19.9 17.6 14.0 69 3.4 NNE 19 24 10 13 1015.5 1015.5 0.0
11/03:30pm 20.5 18.1 14.4 68 3.6 N 20 24 11 13 1015.6 1015.6 0.0
11/03:00pm 20.0 17.4 13.9 68 3.5 N 20 24 11 13 1015.7 1015.7 0.0

Other Formats:

Comma delimited format used in spreadsheet applications
http://www.bom.gov.au/fwo/IDT60801/IDT60801.95964.axf

JavaScript Object Notation format (JSON) in row-major order
http://www.bom.gov.au/fwo/IDT60801/IDT60801.95964.json